Time;durP1;ratioP1;P1;durP2;ratioP2;P2;SDS_P1;SDS_P2;PMS_P1;PMS_P2;Temp;Humidity;BMP_temperature;BMP_pressure;BME280_temperature;BME280_humidity;BME280_pressure;Samples;Min_cycle;Max_cycle;Signal;HPM_P1;HPM_P2
2023/08/25 00:02:29;;;;;;;16.10;13.00;;;;;;;17.47;78.26;98606.48;226688;1273;22524;-75
2023/08/25 00:07:31;;;;;;;16.60;13.10;;;;;;;17.41;78.39;98605.07;226733;1272;22532;-75
2023/08/25 00:12:33;;;;;;;14.40;12.70;;;;;;;17.34;78.55;98602.74;226683;1271;22546;-75
2023/08/25 00:17:36;;;;;;;14.50;12.60;;;;;;;17.28;78.61;98597.43;226684;1270;22526;-75
2023/08/25 00:22:40;;;;;;;15.00;12.60;;;;;;;17.24;78.93;98589.81;226700;1272;23303;-75
2023/08/25 00:27:42;;;;;;;13.10;11.80;;;;;;;17.20;78.98;98584.84;226682;1273;22533;-75
2023/08/25 00:32:44;;;;;;;14.80;13.20;;;;;;;17.17;78.99;98578.63;226612;1272;22528;-75
2023/08/25 00:37:46;;;;;;;15.10;13.10;;;;;;;17.12;79.22;98578.26;226676;1273;22530;-76
2023/08/25 00:42:48;;;;;;;14.20;12.80;;;;;;;17.08;79.20;98576.66;226836;1273;22545;-75
2023/08/25 00:47:50;;;;;;;18.60;12.50;;;;;;;17.04;79.35;98569.33;226629;1270;22528;-75
2023/08/25 00:52:52;;;;;;;14.70;12.80;;;;;;;16.99;79.56;98564.42;226830;1271;22548;-75
2023/08/25 00:57:55;;;;;;;16.20;13.90;;;;;;;16.96;79.58;98564.13;226877;1272;22517;-75
2023/08/25 01:02:57;;;;;;;14.30;12.60;;;;;;;16.93;79.80;98568.56;226677;1272;22527;-75
2023/08/25 01:07:59;;;;;;;14.90;12.10;;;;;;;16.91;80.13;98567.25;226732;1274;22534;-75
2023/08/25 01:13:10;;;;;;;13.80;12.30;;;;;;;16.92;80.15;98568.16;226803;1272;22534;-75
2023/08/25 01:18:17;;;;;;;13.30;11.40;;;;;;;16.96;80.44;98558.98;226705;1273;22576;-75
2023/08/25 01:23:28;;;;;;;13.70;11.80;;;;;;;17.00;80.69;98543.89;226673;1273;22538;-75
2023/08/25 01:28:30;;;;;;;14.10;11.30;;;;;;;17.06;80.62;98536.22;226806;1269;22543;-75
2023/08/25 01:33:34;;;;;;;13.90;11.00;;;;;;;17.08;80.50;98526.38;226932;1272;22526;-76
2023/08/25 01:38:43;;;;;;;13.80;11.90;;;;;;;17.05;80.31;98509.61;226757;1272;132633;-76
2023/08/25 01:43:48;;;;;;;15.00;11.70;;;;;;;16.98;80.38;98498.13;226823;1272;22526;-75
2023/08/25 01:48:52;;;;;;;13.00;11.10;;;;;;;16.91;80.51;98499.39;226759;1266;24996;-74
2023/08/25 01:53:55;;;;;;;12.60;10.90;;;;;;;16.85;80.67;98504.43;226720;1272;22619;-74
2023/08/25 01:58:57;;;;;;;12.00;10.60;;;;;;;16.79;80.64;98510.17;226896;1272;22542;-75
2023/08/25 02:04:00;;;;;;;12.50;11.30;;;;;;;16.74;80.74;98524.32;226735;1273;22510;-75
2023/08/25 02:09:03;;;;;;;13.30;10.90;;;;;;;16.70;80.82;98536.13;226809;1273;22545;-75
2023/08/25 02:14:04;;;;;;;14.20;11.80;;;;;;;16.67;80.96;98541.63;226842;1273;22621;-75
2023/08/25 02:19:06;;;;;;;13.90;12.10;;;;;;;16.66;81.11;98542.76;226815;1272;23276;-75
2023/08/25 02:24:09;;;;;;;14.90;12.50;;;;;;;16.67;81.26;98543.36;226802;1269;23258;-74
2023/08/25 02:29:11;;;;;;;13.20;11.80;;;;;;;16.69;81.41;98540.48;226853;1273;22562;-75
2023/08/25 02:34:13;;;;;;;14.30;12.90;;;;;;;16.74;81.54;98529.98;226778;1270;22538;-75
2023/08/25 02:39:15;;;;;;;14.30;11.90;;;;;;;16.79;81.57;98519.69;226766;1269;22563;-76
2023/08/25 02:44:17;;;;;;;15.80;12.10;;;;;;;16.85;81.51;98519.66;226757;1272;22550;-75
2023/08/25 02:49:19;;;;;;;16.40;13.00;;;;;;;16.92;81.53;98521.14;226910;1273;22636;-74
2023/08/25 02:54:22;;;;;;;14.30;12.80;;;;;;;16.98;81.41;98513.99;226906;1273;22526;-75
2023/08/25 02:59:24;;;;;;;12.70;11.30;;;;;;;17.02;81.41;98504.96;226831;1250;22581;-74
2023/08/25 03:04:26;;;;;;;12.70;11.40;;;;;;;17.05;81.34;98499.69;226803;1272;22634;-75
2023/08/25 03:09:28;;;;;;;13.30;11.70;;;;;;;17.06;81.33;98497.20;226915;1272;22519;-75
2023/08/25 03:14:31;;;;;;;12.10;10.80;;;;;;;17.09;81.41;98493.80;226890;1272;22581;-75
2023/08/25 03:19:33;;;;;;;12.30;11.00;;;;;;;17.11;81.36;98486.98;226887;1272;22534;-75
2023/08/25 03:24:35;;;;;;;12.80;11.10;;;;;;;17.13;81.39;98485.63;226916;1272;25328;-75
2023/08/25 03:29:38;;;;;;;14.30;11.40;;;;;;;17.15;81.32;98486.99;226887;1273;22537;-75
2023/08/25 03:34:40;;;;;;;17.30;11.40;;;;;;;17.16;81.58;98476.30;226824;1273;22556;-75
2023/08/25 03:39:42;;;;;;;13.00;10.50;;;;;;;17.17;81.36;98459.93;226710;1273;22533;-75
2023/08/25 03:44:45;;;;;;;13.30;11.00;;;;;;;17.19;81.35;98456.23;226765;1272;22542;-75
2023/08/25 03:49:47;;;;;;;13.90;11.20;;;;;;;17.23;81.37;98446.88;226808;1273;22956;-75
2023/08/25 03:54:49;;;;;;;13.60;11.20;;;;;;;17.24;81.05;98440.49;226856;1273;22542;-75
2023/08/25 03:59:51;;;;;;;12.80;10.40;;;;;;;17.23;81.18;98438.19;226849;1273;25236;-76
2023/08/25 04:04:53;;;;;;;13.60;11.60;;;;;;;17.26;81.33;98439.53;226760;1271;22522;-75
2023/08/25 04:09:55;;;;;;;13.80;10.70;;;;;;;17.31;81.24;98438.60;226748;1272;22525;-75
2023/08/25 04:14:57;;;;;;;12.50;10.60;;;;;;;17.35;81.13;98441.45;226840;1273;22530;-76
2023/08/25 04:19:59;;;;;;;11.60;10.30;;;;;;;17.44;81.46;98444.77;226815;1273;22637;-75
2023/08/25 04:25:01;;;;;;;11.90;10.10;;;;;;;17.55;81.35;98448.27;226828;1273;22530;-75
2023/08/25 04:30:04;;;;;;;12.90;10.90;;;;;;;17.65;81.20;98446.08;226960;1273;22621;-75
2023/08/25 04:35:07;;;;;;;13.80;11.50;;;;;;;17.75;81.14;98437.31;226774;1273;22536;-75
2023/08/25 04:40:11;;;;;;;13.20;10.20;;;;;;;17.83;81.11;98436.27;226831;1272;22527;-76
2023/08/25 04:45:14;;;;;;;10.80;9.70;;;;;;;17.94;80.92;98426.60;226774;1270;22530;-75
2023/08/25 04:50:16;;;;;;;11.90;9.80;;;;;;;18.02;80.71;98426.09;226855;1272;22549;-76
2023/08/25 04:55:18;;;;;;;12.10;9.40;;;;;;;18.11;80.78;98426.44;226771;1272;22530;-76
2023/08/25 05:00:20;;;;;;;11.50;9.80;;;;;;;18.22;80.70;98432.21;226876;1272;22574;-75
2023/08/25 05:05:23;;;;;;;11.40;9.60;;;;;;;18.36;80.82;98428.88;226798;1272;22525;-74
2023/08/25 05:10:27;;;;;;;11.20;10.00;;;;;;;18.47;80.39;98431.96;226991;1272;22553;-75
2023/08/25 05:15:31;;;;;;;15.90;12.60;;;;;;;18.54;80.40;98429.38;226822;1272;22578;-75
2023/08/25 05:20:33;;;;;;;16.60;11.10;;;;;;;18.59;80.16;98422.04;226908;1272;22525;-75
2023/08/25 05:25:35;;;;;;;13.20;10.50;;;;;;;18.63;80.03;98409.36;226857;1272;22509;-75
2023/08/25 05:30:37;;;;;;;13.50;10.00;;;;;;;18.70;79.95;98394.55;226874;1272;22581;-75
2023/08/25 05:35:40;;;;;;;11.10;9.20;;;;;;;18.87;80.10;98390.59;226780;1273;22540;-75
2023/08/25 05:40:44;;;;;;;12.30;8.40;;;;;;;19.13;79.87;98383.41;226854;1272;22559;-75
2023/08/25 05:45:46;;;;;;;12.60;8.20;;;;;;;19.39;79.63;98379.64;226814;1270;22534;-75
2023/08/25 05:50:48;;;;;;;9.30;8.30;;;;;;;19.62;79.24;98379.33;226605;1264;22537;-76
2023/08/25 05:55:50;;;;;;;9.40;7.50;;;;;;;19.87;78.97;98373.73;226475;1270;25416;-75
2023/08/25 06:00:53;;;;;;;9.70;8.00;;;;;;;20.15;78.63;98371.27;226571;1270;22563;-78
2023/08/25 06:05:55;;;;;;;13.20;8.50;;;;;;;20.47;78.05;98369.14;226441;1267;22545;-79
2023/08/25 06:10:57;;;;;;;14.50;8.70;;;;;;;20.80;77.66;98358.36;226467;1254;23026;-79
2023/08/25 06:16:03;;;;;;;15.00;8.20;;;;;;;21.09;77.24;98345.11;226447;1263;23135;-76
2023/08/25 06:21:05;;;;;;;12.40;7.60;;;;;;;21.33;76.83;98345.81;226437;1258;22558;-76
2023/08/25 06:26:07;;;;;;;13.00;7.00;;;;;;;21.62;76.38;98359.68;226375;1263;22610;-76
2023/08/25 06:31:09;;;;;;;23.20;7.80;;;;;;;21.90;75.53;98363.75;226177;1260;22527;-75
2023/08/25 06:36:12;;;;;;;9.30;6.80;;;;;;;22.08;74.73;98363.73;226272;1263;22539;-76
2023/08/25 06:41:14;;;;;;;9.50;7.20;;;;;;;22.22;74.05;98369.90;226460;1267;23480;-76
2023/08/25 06:46:16;;;;;;;8.50;7.40;;;;;;;22.32;73.72;98351.84;226493;1267;24233;-76
2023/08/25 06:51:18;;;;;;;14.20;8.00;;;;;;;22.39;73.50;98353.15;225807;1260;22945;-77
2023/08/25 06:56:20;;;;;;;11.20;9.70;;;;;;;22.41;73.08;98369.88;225579;1263;22541;-77
2023/08/25 07:01:22;;;;;;;10.70;7.50;;;;;;;22.40;72.60;98381.48;225278;1257;22531;-76
2023/08/25 07:06:24;;;;;;;11.30;7.40;;;;;;;22.32;72.42;98377.14;225588;1266;22578;-79
2023/08/25 07:11:26;;;;;;;14.40;10.80;;;;;;;22.34;72.63;98377.99;225736;1255;24227;-77
2023/08/25 07:16:28;;;;;;;9.70;7.90;;;;;;;22.44;72.54;98397.61;225624;1251;22548;-76
2023/08/25 07:21:30;;;;;;;12.00;8.50;;;;;;;22.53;72.26;98398.30;225590;1267;22563;-75
2023/08/25 07:26:32;;;;;;;11.00;7.70;;;;;;;22.61;72.19;98402.88;225746;1256;22942;-77
2023/08/25 07:31:34;;;;;;;11.40;7.90;;;;;;;22.73;72.18;98404.24;225791;1267;22576;-75
2023/08/25 07:36:38;;;;;;;8.80;7.60;;;;;;;22.93;72.26;98404.17;225710;1251;22654;-75
2023/08/25 07:41:40;;;;;;;13.50;8.30;;;;;;;23.20;71.95;98392.92;225617;1251;23770;-77
2023/08/25 07:46:42;;;;;;;11.40;9.70;;;;;;;23.49;72.07;98388.70;225607;1251;22545;-77
2023/08/25 07:51:45;;;;;;;9.70;8.70;;;;;;;23.73;71.72;98382.68;225723;1254;23794;-78
2023/08/25 07:56:46;;;;;;;13.00;8.50;;;;;;;23.89;71.26;98384.42;225757;1267;22601;-78
2023/08/25 08:01:50;;;;;;;9.60;8.20;;;;;;;24.14;71.18;98371.19;225651;1260;23064;-78
2023/08/25 08:06:52;;;;;;;9.70;8.60;;;;;;;24.50;71.22;98361.45;225500;1260;22598;-75
2023/08/25 08:11:54;;;;;;;9.20;8.30;;;;;;;24.83;70.26;98359.58;225840;1251;22667;-74
2023/08/25 08:16:56;;;;;;;12.90;9.40;;;;;;;25.11;69.60;98355.63;225716;1264;22543;-76
2023/08/25 08:21:59;;;;;;;10.00;8.50;;;;;;;25.37;68.57;98358.66;225702;1254;22531;-75
2023/08/25 08:27:01;;;;;;;10.10;9.10;;;;;;;25.52;68.37;98363.61;225787;1267;22649;-75
2023/08/25 08:32:04;;;;;;;9.80;8.80;;;;;;;25.70;67.86;98375.26;225693;1254;22541;-74
2023/08/25 08:37:07;;;;;;;11.90;10.80;;;;;;;25.80;67.55;98373.35;225875;1273;26336;-75
2023/08/25 08:42:12;;;;;;;9.70;8.80;;;;;;;25.95;67.75;98378.45;225658;1267;22539;-76
2023/08/25 08:47:19;;;;;;;11.60;10.20;;;;;;;26.20;67.59;98368.04;225860;1251;22585;-78
2023/08/25 08:52:21;;;;;;;11.10;10.00;;;;;;;26.44;67.51;98366.55;225905;1270;22545;-81
2023/08/25 08:57:25;;;;;;;11.80;10.70;;;;;;;26.63;67.00;98368.30;225894;1261;22530;-74
2023/08/25 09:02:29;;;;;;;11.60;10.40;;;;;;;26.77;67.02;98369.13;225816;1267;22539;-74
2023/08/25 09:07:32;;;;;;;11.10;10.00;;;;;;;26.85;66.51;98359.23;228734;1251;22147;-74
2023/08/25 09:12:35;;;;;;;10.50;9.50;;;;;;;27.05;66.66;98349.46;228705;1270;22147;-74
2023/08/25 09:17:38;;;;;;;12.50;11.20;;;;;;;27.24;65.94;98344.30;228768;1266;24254;-74
2023/08/25 09:22:41;;;;;;;16.10;10.20;;;;;;;27.43;66.12;98335.69;228926;1266;22343;-74
2023/08/25 09:27:42;;;;;;;11.80;10.60;;;;;;;27.68;65.69;98332.05;228900;1267;22466;-74
2023/08/25 09:32:44;;;;;;;11.00;9.70;;;;;;;27.88;65.00;98335.80;228778;1261;22221;-74
2023/08/25 09:37:46;;;;;;;10.30;9.30;;;;;;;27.97;64.59;98333.41;228812;1267;22284;-74
2023/08/25 09:42:48;;;;;;;12.70;10.20;;;;;;;28.11;64.34;98328.48;228713;1270;22772;-74
2023/08/25 09:47:50;;;;;;;9.60;8.70;;;;;;;28.12;63.61;98325.84;228952;1266;22130;-74
2023/08/25 09:52:54;;;;;;;10.00;9.00;;;;;;;28.18;63.16;98331.29;228819;1263;22344;-74
2023/08/25 09:57:56;;;;;;;11.10;9.20;;;;;;;28.22;62.45;98314.35;228814;1263;22656;-74
2023/08/25 10:02:59;;;;;;;10.00;9.00;;;;;;;28.30;62.60;98314.99;228867;1257;22474;-74
2023/08/25 10:08:01;;;;;;;10.20;9.20;;;;;;;28.60;62.79;98321.89;228827;1266;22865;-74
2023/08/25 10:13:04;;;;;;;12.70;8.50;;;;;;;28.87;62.58;98328.74;228719;1266;22325;-74
2023/08/25 10:18:08;;;;;;;10.10;8.60;;;;;;;28.85;61.52;98333.02;228603;1266;22181;-74
2023/08/25 10:23:11;;;;;;;9.50;8.50;;;;;;;28.87;61.32;98335.05;228756;1266;24713;-74
2023/08/25 10:28:13;;;;;;;8.50;7.70;;;;;;;28.85;60.39;98337.66;226458;1263;22554;-73
2023/08/25 10:33:15;;;;;;;8.70;8.00;;;;;;;28.91;60.71;98328.77;226598;1267;22550;-77
2023/08/25 10:38:17;;;;;;;9.70;8.80;;;;;;;29.07;60.51;98327.44;226501;1260;22557;-73
2023/08/25 10:43:33;;;;;;;9.80;8.50;;;;;;;29.06;59.80;98328.02;226622;1250;22543;-73
2023/08/25 10:48:39;;;;;;;11.30;8.90;;;;;;;29.02;59.71;98323.41;226468;1267;22560;-74
2023/08/25 10:53:52;;;;;;;10.00;9.00;;;;;;;29.17;60.37;98327.63;226639;1267;22526;-74
2023/08/25 10:59:05;;;;;;;9.70;8.60;;;;;;;29.28;59.68;98335.75;226546;1267;22549;-75
2023/08/25 11:04:11;;;;;;;13.00;8.50;;;;;;;29.36;59.23;98338.13;226521;1269;22524;-74
2023/08/25 11:09:23;;;;;;;10.50;9.40;;;;;;;29.36;59.04;98328.17;226571;1270;25226;-75
2023/08/25 11:14:31;;;;;;;9.40;8.50;;;;;;;29.52;59.79;98326.41;226483;1254;22551;-75
2023/08/25 11:19:36;;;;;;;9.50;8.30;;;;;;;29.69;59.50;98332.91;226516;1257;22542;-74
2023/08/25 11:24:38;;;;;;;8.20;7.40;;;;;;;29.80;58.88;98329.33;226806;1253;22635;-74
2023/08/25 11:29:44;;;;;;;8.80;8.00;;;;;;;29.87;58.35;98326.38;226309;1258;22547;-73
2023/08/25 11:34:48;;;;;;;10.60;9.40;;;;;;;30.00;59.06;98331.88;226492;1263;22525;-73
2023/08/25 11:39:50;;;;;;;8.40;7.60;;;;;;;30.19;58.57;98331.75;226520;1272;22545;-73
2023/08/25 11:44:52;;;;;;;9.00;8.10;;;;;;;30.30;57.61;98332.34;226513;1267;25233;-73
2023/08/25 11:49:56;;;;;;;9.10;8.20;;;;;;;30.32;56.92;98335.63;226532;1270;22571;-73
2023/08/25 11:54:58;;;;;;;8.50;7.50;;;;;;;30.25;56.42;98330.56;226625;1272;22541;-73
2023/08/25 12:00:03;;;;;;;8.20;7.40;;;;;;;30.33;57.11;98323.35;226545;1269;22867;-73
2023/08/25 12:05:05;;;;;;;7.70;7.10;;;;;;;30.62;56.77;98326.22;226556;1270;22543;-73
2023/08/25 12:10:08;;;;;;;8.40;7.60;;;;;;;30.80;56.77;98319.93;226614;1272;22569;-73
2023/08/25 12:15:09;;;;;;;11.80;8.50;;;;;;;30.96;56.46;98314.44;226436;1266;22517;-73
2023/08/25 12:20:14;;;;;;;8.80;7.90;;;;;;;30.93;56.02;98316.58;226444;1259;22733;-74
2023/08/25 12:25:16;;;;;;;10.10;8.10;;;;;;;30.86;56.21;98318.30;226463;1250;22538;-73
2023/08/25 12:30:18;;;;;;;10.20;9.30;;;;;;;30.96;56.36;98325.90;226339;1260;22595;-74
2023/08/25 12:35:22;;;;;;;9.60;8.10;;;;;;;30.94;55.89;98320.55;226407;1253;22531;-74
2023/08/25 12:40:24;;;;;;;9.40;8.00;;;;;;;30.94;56.19;98312.74;226539;1272;22570;-73
2023/08/25 12:45:27;;;;;;;7.90;7.30;;;;;;;30.96;56.34;98303.39;226507;1267;22582;-72
2023/08/25 12:50:29;;;;;;;7.90;6.50;;;;;;;31.10;56.07;98300.50;226484;1254;22539;-72
2023/08/25 12:55:31;;;;;;;8.60;6.40;;;;;;;31.11;55.54;98297.48;226476;1269;22683;-72
2023/08/25 13:00:33;;;;;;;6.60;5.70;;;;;;;31.18;55.68;98292.38;226486;1253;25249;-71
2023/08/25 13:05:35;;;;;;;7.40;6.10;;;;;;;31.35;55.34;98280.10;226555;1266;22583;-72
2023/08/25 13:10:37;;;;;;;5.80;5.10;;;;;;;31.45;53.89;98283.27;226463;1253;22543;-72
2023/08/25 13:15:39;;;;;;;8.50;7.70;;;;;;;31.33;53.25;98284.30;226555;1270;25344;-72
2023/08/25 13:20:41;;;;;;;5.40;4.90;;;;;;;31.27;53.14;98282.54;226406;1259;22561;-73
2023/08/25 13:25:43;;;;;;;6.60;4.60;;;;;;;31.30;53.38;98279.22;226536;1270;22529;-74
2023/08/25 13:30:45;;;;;;;5.10;3.70;;;;;;;31.31;52.46;98282.77;226547;1254;22528;-74
2023/08/25 13:35:51;;;;;;;6.10;4.10;;;;;;;31.34;52.40;98279.05;226293;1270;144093;-73
2023/08/25 13:40:53;;;;;;;4.70;4.10;;;;;;;31.33;52.09;98279.08;226402;1251;23618;-73
2023/08/25 13:45:55;;;;;;;4.50;4.10;;;;;;;31.34;52.31;98278.34;226296;1257;23449;-73
2023/08/25 13:50:58;;;;;;;5.00;4.40;;;;;;;31.37;52.57;98273.98;226465;1263;23029;-74
2023/08/25 13:56:00;;;;;;;4.60;3.90;;;;;;;31.43;52.48;98264.32;226391;1262;24208;-73
2023/08/25 14:01:04;;;;;;;5.10;4.30;;;;;;;31.37;51.38;98262.84;226332;1266;23224;-72
2023/08/25 14:06:06;;;;;;;5.10;3.90;;;;;;;31.28;51.79;98263.39;226926;1251;22537;-72
2023/08/25 14:11:12;;;;;;;6.10;4.00;;;;;;;31.38;52.05;98262.15;226786;1272;22548;-73
2023/08/25 14:16:14;;;;;;;4.00;3.70;;;;;;;31.42;51.83;98255.63;226806;1266;25360;-73
2023/08/25 14:21:16;;;;;;;6.70;5.30;;;;;;;31.42;51.90;98259.28;226817;1266;22544;-73
2023/08/25 14:26:18;;;;;;;5.00;3.60;;;;;;;31.47;52.03;98260.48;226885;1272;25192;-73
2023/08/25 14:31:20;;;;;;;4.70;3.90;;;;;;;31.59;51.78;98258.39;226761;1269;22549;-74
2023/08/25 14:36:21;;;;;;;6.30;4.30;;;;;;;31.63;51.83;98264.77;226675;1273;22876;-73
2023/08/25 14:41:23;;;;;;;3.80;3.40;;;;;;;31.68;51.62;98259.79;226852;1270;22615;-73
2023/08/25 14:46:27;;;;;;;4.80;3.90;;;;;;;31.66;51.33;98252.31;226842;1273;22529;-72
2023/08/25 14:51:29;;;;;;;3.40;3.20;;;;;;;31.66;51.54;98260.42;226976;1270;22553;-73
2023/08/25 14:56:31;;;;;;;4.20;3.30;;;;;;;31.68;51.41;98263.94;226862;1270;22576;-73
2023/08/25 15:01:34;;;;;;;4.30;3.30;;;;;;;31.71;51.73;98264.36;226907;1270;22530;-73
2023/08/25 15:06:36;;;;;;;4.00;3.30;;;;;;;31.78;51.78;98275.81;226828;1273;22542;-73
2023/08/25 15:11:38;;;;;;;6.50;3.10;;;;;;;31.79;51.22;98265.54;226827;1273;22529;-73
2023/08/25 15:16:40;;;;;;;3.90;3.40;;;;;;;31.74;50.95;98267.73;226879;1273;22542;-74
2023/08/25 15:21:42;;;;;;;3.50;3.20;;;;;;;31.66;50.73;98261.92;226897;1270;22531;-74
2023/08/25 15:26:44;;;;;;;5.20;3.80;;;;;;;31.55;50.75;98259.63;226842;1270;24805;-72
2023/08/25 15:31:46;;;;;;;4.30;3.90;;;;;;;31.42;51.08;98269.27;226909;1270;23287;-73
2023/08/25 15:36:47;;;;;;;3.60;3.40;;;;;;;31.22;51.28;98270.17;226919;1273;22743;-73
2023/08/25 15:41:49;;;;;;;5.60;3.60;;;;;;;30.92;51.33;98268.67;226899;1272;22572;-73
2023/08/25 15:46:51;;;;;;;3.70;3.30;;;;;;;30.59;51.41;98274.23;226903;1270;22527;-73
2023/08/25 15:51:53;;;;;;;4.90;3.30;;;;;;;30.44;51.96;98278.44;226799;1271;22552;-72
2023/08/25 15:56:55;;;;;;;4.10;3.70;;;;;;;30.33;51.95;98277.00;226867;1273;22598;-73
2023/08/25 16:01:57;;;;;;;4.50;3.80;;;;;;;30.23;52.44;98267.21;226929;1270;23427;-73
2023/08/25 16:06:59;;;;;;;7.30;4.60;;;;;;;30.22;53.12;98262.34;226855;1269;22568;-73
2023/08/25 16:12:02;;;;;;;5.50;5.00;;;;;;;30.24;53.23;98260.00;226820;1271;22541;-73
2023/08/25 16:17:04;;;;;;;5.10;4.50;;;;;;;30.31;53.37;98261.58;226758;1269;22536;-73
2023/08/25 16:22:06;;;;;;;4.40;4.00;;;;;;;30.32;53.18;98267.70;226831;1273;22538;-73
2023/08/25 16:27:08;;;;;;;7.10;3.70;;;;;;;30.31;53.45;98264.39;226705;1272;22534;-72
2023/08/25 16:32:10;;;;;;;5.60;3.70;;;;;;;30.21;53.57;98265.65;226695;1256;22537;-73
2023/08/25 16:37:11;;;;;;;4.70;4.20;;;;;;;30.02;53.89;98261.90;226625;1273;22536;-72
2023/08/25 16:42:13;;;;;;;4.70;4.10;;;;;;;29.76;54.18;98261.98;226667;1269;24262;-73
2023/08/25 16:47:15;;;;;;;5.70;4.40;;;;;;;29.49;54.48;98258.67;226689;1272;25395;-73
2023/08/25 16:52:17;;;;;;;6.00;5.40;;;;;;;29.26;54.81;98255.42;226834;1269;23285;-72
2023/08/25 16:57:19;;;;;;;5.80;5.30;;;;;;;29.06;55.33;98251.52;226896;1269;23433;-72
2023/08/25 17:02:20;;;;;;;8.10;5.30;;;;;;;28.90;55.93;98252.81;226770;1272;23626;-72
2023/08/25 17:07:22;;;;;;;6.00;4.30;;;;;;;28.76;56.07;98252.30;226681;1267;25357;-73
2023/08/25 17:12:25;;;;;;;7.00;4.10;;;;;;;28.64;56.27;98247.48;226765;1271;22545;-73
2023/08/25 17:17:27;;;;;;;6.50;4.00;;;;;;;28.50;56.60;98245.05;226720;1272;22545;-73
2023/08/25 17:22:28;;;;;;;6.40;5.30;;;;;;;28.34;56.84;98252.23;226765;1273;22557;-72
2023/08/25 17:27:32;;;;;;;5.80;5.20;;;;;;;28.17;57.43;98251.42;226768;1271;22527;-73
2023/08/25 17:32:35;;;;;;;5.30;4.70;;;;;;;28.00;57.99;98254.14;226693;1269;25316;-73
2023/08/25 17:37:37;;;;;;;6.10;5.00;;;;;;;27.81;58.16;98252.06;226755;1272;22541;-73
2023/08/25 17:42:38;;;;;;;6.40;5.50;;;;;;;27.62;58.61;98256.02;226836;1273;24925;-74
2023/08/25 17:47:40;;;;;;;5.90;4.60;;;;;;;27.43;58.91;98249.36;226794;1272;22529;-73
2023/08/25 17:52:42;;;;;;;7.30;4.40;;;;;;;27.23;59.45;98250.29;226709;1267;22531;-73
2023/08/25 17:57:44;;;;;;;5.40;4.50;;;;;;;27.04;59.92;98252.59;226812;1273;22741;-73
2023/08/25 18:02:46;;;;;;;5.10;4.40;;;;;;;26.86;60.07;98255.86;226712;1272;22554;-73
2023/08/25 18:07:48;;;;;;;5.30;4.80;;;;;;;26.69;60.51;98262.55;226887;1272;22527;-72
2023/08/25 18:12:50;;;;;;;6.90;4.90;;;;;;;26.52;60.67;98264.55;226667;1273;22541;-73
2023/08/25 18:17:52;;;;;;;6.60;5.10;;;;;;;26.35;61.12;98275.10;226661;1272;22541;-73
2023/08/25 18:22:54;;;;;;;9.10;5.20;;;;;;;26.20;61.36;98279.02;226668;1269;22538;-73
2023/08/25 18:27:56;;;;;;;7.00;5.00;;;;;;;26.05;61.82;98278.84;226701;1270;22529;-73
2023/08/25 18:32:58;;;;;;;7.00;5.30;;;;;;;25.90;62.19;98277.65;226645;1272;22540;-73
2023/08/25 18:38:00;;;;;;;5.80;4.80;;;;;;;25.81;62.56;98282.88;226763;1272;22552;-73
2023/08/25 18:43:02;;;;;;;5.70;5.00;;;;;;;25.71;62.80;98297.08;226783;1271;22588;-73
2023/08/25 18:48:04;;;;;;;6.00;5.40;;;;;;;25.54;63.13;98300.42;226696;1271;22541;-72
2023/08/25 18:53:06;;;;;;;6.50;5.60;;;;;;;25.37;63.60;98305.36;226634;1270;22570;-72
2023/08/25 18:58:08;;;;;;;6.20;5.60;;;;;;;25.20;64.13;98304.02;226663;1272;22548;-72
2023/08/25 19:03:11;;;;;;;7.90;5.80;;;;;;;25.07;64.46;98313.32;226611;1273;22534;-73
2023/08/25 19:08:13;;;;;;;6.80;5.70;;;;;;;24.94;64.72;98318.73;226657;1270;22527;-73
2023/08/25 19:13:16;;;;;;;8.90;5.40;;;;;;;24.85;65.20;98327.77;226704;1271;22534;-73
2023/08/25 19:18:18;;;;;;;6.80;5.60;;;;;;;24.77;65.51;98334.31;226614;1272;22562;-73
2023/08/25 19:23:20;;;;;;;9.70;6.30;;;;;;;24.71;65.77;98332.50;226739;1272;22550;-72
2023/08/25 19:28:22;;;;;;;9.80;6.20;;;;;;;24.67;65.97;98331.20;226790;1272;22557;-74
2023/08/25 19:33:24;;;;;;;6.70;6.00;;;;;;;24.63;66.30;98335.95;226841;1263;22647;-73
2023/08/25 19:38:26;;;;;;;8.00;5.50;;;;;;;24.61;66.38;98328.80;226765;1272;22531;-71
2023/08/25 19:43:28;;;;;;;8.60;5.50;;;;;;;24.60;66.62;98327.25;226837;1269;24235;-73
2023/08/25 19:48:32;;;;;;;8.20;5.20;;;;;;;24.57;66.76;98334.20;226742;1272;22637;-72
2023/08/25 19:53:37;;;;;;;6.10;4.70;;;;;;;24.53;66.75;98343.04;226907;1269;22533;-72
2023/08/25 19:58:42;;;;;;;6.60;4.80;;;;;;;24.52;66.91;98351.10;226858;1257;22520;-73
2023/08/25 20:03:44;;;;;;;6.40;5.50;;;;;;;24.52;66.96;98349.88;226768;1272;22557;-72
2023/08/25 20:08:46;;;;;;;8.50;6.10;;;;;;;24.49;67.12;98358.43;226787;1270;22751;-72
2023/08/25 20:13:49;;;;;;;6.60;5.70;;;;;;;24.44;67.05;98358.78;226731;1272;22613;-73
2023/08/25 20:18:50;;;;;;;6.00;5.10;;;;;;;24.37;67.06;98349.55;226762;1273;24938;-73
2023/08/25 20:23:52;;;;;;;8.10;5.10;;;;;;;24.29;67.04;98340.48;226795;1272;22544;-73
2023/08/25 20:28:56;;;;;;;6.60;5.90;;;;;;;24.22;67.25;98340.26;226703;1272;22530;-73
2023/08/25 20:33:58;;;;;;;8.40;4.90;;;;;;;24.15;67.52;98337.64;226687;1271;22559;-73
2023/08/25 20:39:02;;;;;;;6.20;5.10;;;;;;;24.09;67.76;98345.52;226731;1272;22537;-74
2023/08/25 20:44:04;;;;;;;7.30;6.10;;;;;;;24.02;68.08;98364.81;226763;1271;25389;-74
2023/08/25 20:49:06;;;;;;;6.60;5.70;;;;;;;23.97;68.20;98365.58;226687;1273;22585;-74
2023/08/25 20:54:08;;;;;;;8.20;5.40;;;;;;;23.93;68.40;98361.39;226700;1272;24272;-73
2023/08/25 20:59:10;;;;;;;7.50;5.60;;;;;;;23.93;68.68;98364.27;226691;1273;22701;-73
2023/08/25 21:04:12;;;;;;;6.20;5.50;;;;;;;23.93;68.81;98364.96;226721;1271;22550;-73
2023/08/25 21:09:19;;;;;;;8.00;5.00;;;;;;;23.88;69.12;98370.04;226688;1273;22545;-73
2023/08/25 21:14:20;;;;;;;8.80;6.00;;;;;;;23.86;69.61;98385.66;226718;1274;25229;-73
2023/08/25 21:19:22;;;;;;;8.70;6.40;;;;;;;23.82;70.30;98386.59;226750;1272;23301;-73
2023/08/25 21:24:24;;;;;;;7.30;6.30;;;;;;;23.71;70.47;98372.88;226811;1272;22588;-73
2023/08/25 21:29:26;;;;;;;7.60;6.00;;;;;;;23.63;70.83;98363.98;226821;1269;22609;-73
2023/08/25 21:34:28;;;;;;;8.00;4.40;;;;;;;23.58;70.92;98368.52;226800;1269;22560;-73
2023/08/25 21:39:50;;;;;;;5.30;4.60;;;;;;;23.58;71.20;98412.88;226793;1272;24179;-74
2023/08/25 21:44:51;;;;;;;7.20;4.70;;;;;;;23.59;71.64;98445.23;226796;1270;22547;-73
2023/08/25 21:49:53;;;;;;;4.70;3.90;;;;;;;23.45;72.08;98425.60;226928;1272;23775;-73
2023/08/25 21:54:55;;;;;;;4.30;3.80;;;;;;;23.20;72.99;98412.55;226663;1269;22639;-73
2023/08/25 21:59:57;;;;;;;5.20;4.10;;;;;;;22.97;73.59;98386.70;226696;1266;25331;-72
2023/08/25 22:04:59;;;;;;;4.70;4.30;;;;;;;22.82;74.23;98383.55;226642;1273;22526;-72
2023/08/25 22:10:03;;;;;;;6.90;4.20;;;;;;;22.74;74.93;98357.26;226644;1273;25468;-72
2023/08/25 22:15:07;;;;;;;8.40;4.30;;;;;;;22.68;75.33;98348.45;226671;1274;22545;-73
2023/08/25 22:20:09;;;;;;;5.10;4.20;;;;;;;22.61;75.73;98343.69;226804;1272;22542;-72
2023/08/25 22:25:11;;;;;;;5.80;4.80;;;;;;;22.59;76.32;98346.17;226799;1267;22578;-72
2023/08/25 22:30:13;;;;;;;6.10;4.80;;;;;;;22.56;76.82;98351.36;226813;1263;22667;-72
2023/08/25 22:35:15;;;;;;;5.10;4.60;;;;;;;22.47;76.73;98353.83;226886;1272;22573;-73
2023/08/25 22:40:17;;;;;;;6.10;5.10;;;;;;;22.37;76.87;98344.23;226865;1273;24259;-73
2023/08/25 22:45:19;;;;;;;5.40;4.90;;;;;;;22.30;76.95;98339.08;226837;1270;22533;-73
2023/08/25 22:50:21;;;;;;;5.40;4.80;;;;;;;22.27;77.36;98335.64;226847;1266;22543;-73
2023/08/25 22:55:23;;;;;;;7.60;5.00;;;;;;;22.26;77.47;98333.98;226756;1269;22537;-73
2023/08/25 23:00:26;;;;;;;9.10;5.40;;;;;;;22.24;77.47;98332.11;226751;1270;23730;-73
2023/08/25 23:05:39;;;;;;;6.30;5.30;;;;;;;22.23;77.32;98330.50;226889;1272;25200;-73
2023/08/25 23:10:40;;;;;;;5.50;5.00;;;;;;;22.22;77.50;98328.45;226783;1273;22534;-73
2023/08/25 23:15:45;;;;;;;8.10;5.50;;;;;;;22.22;77.62;98323.93;226694;1269;22656;-73